createdAt,value
2022-10-31T00:00:22.696Z,4.3
2022-10-31T00:01:22.651Z,4.3
2022-10-31T00:02:22.777Z,4.3
2022-10-31T00:03:22.649Z,4.3
2022-10-31T00:04:22.642Z,4.3
2022-10-31T00:05:22.619Z,4.3
2022-10-31T00:06:22.733Z,4.3
2022-10-31T00:07:22.639Z,4.3
2022-10-31T00:08:22.618Z,4.3
2022-10-31T00:09:22.619Z,4.4
2022-10-31T00:10:22.635Z,4.4
2022-10-31T00:11:22.660Z,4.3
2022-10-31T00:12:22.628Z,4.3
2022-10-31T00:14:22.642Z,4.3
2022-10-31T00:15:22.639Z,4.3
2022-10-31T00:16:22.636Z,4.2
2022-10-31T00:17:22.631Z,4.3
2022-10-31T00:18:22.635Z,4.2
2022-10-31T00:19:22.635Z,4.2
2022-10-31T00:20:22.623Z,4.2
2022-10-31T00:21:22.634Z,4.2
2022-10-31T00:22:22.632Z,4.2
2022-10-31T00:23:22.639Z,4.2
2022-10-31T00:24:22.629Z,4.2
2022-10-31T00:25:22.622Z,4.3
2022-10-31T00:26:22.638Z,4.4
2022-10-31T00:27:22.638Z,4.4
2022-10-31T00:28:22.629Z,4.3
2022-10-31T00:29:22.622Z,4.3
2022-10-31T00:30:22.649Z,4.3
2022-10-31T00:31:22.632Z,4.3
2022-10-31T00:32:22.655Z,4.2
2022-10-31T00:33:22.630Z,4.3
2022-10-31T00:34:22.656Z,4.3
2022-10-31T00:35:22.830Z,4.3
2022-10-31T00:36:22.643Z,4.3
2022-10-31T00:37:22.634Z,4.3
2022-10-31T00:38:22.636Z,4.3
2022-10-31T00:39:22.617Z,4.2
2022-10-31T00:40:22.767Z,4.2
2022-10-31T00:41:22.664Z,4.2
2022-10-31T00:42:22.627Z,4.1
2022-10-31T00:43:22.634Z,4
2022-10-31T00:44:22.637Z,4
2022-10-31T00:45:22.731Z,4
2022-10-31T00:46:22.632Z,4.1
2022-10-31T00:47:22.628Z,4.2
2022-10-31T00:48:22.620Z,4.2
2022-10-31T00:49:22.638Z,4.1
2022-10-31T00:50:22.630Z,4.2
2022-10-31T00:51:22.642Z,4.1
2022-10-31T00:52:22.629Z,4.1
2022-10-31T00:53:16.692Z,4.2
2022-10-31T00:54:22.637Z,4.2
2022-10-31T00:55:22.628Z,4.1
2022-10-31T00:56:22.647Z,4.1
2022-10-31T00:57:22.639Z,4.2
2022-10-31T00:58:22.645Z,4.2
2022-10-31T00:59:22.635Z,4.2
2022-10-31T01:00:22.657Z,4.2
2022-10-31T01:01:22.800Z,4.1
2022-10-31T01:02:22.895Z,4.1
2022-10-31T01:03:22.663Z,4.2
2022-10-31T01:04:22.633Z,4.2
2022-10-31T01:05:22.632Z,4.2
2022-10-31T01:06:22.653Z,4.2
2022-10-31T01:07:22.641Z,4.2
2022-10-31T01:08:22.629Z,4.2
2022-10-31T01:09:22.642Z,4.2
2022-10-31T01:10:22.633Z,4.2
2022-10-31T01:11:22.625Z,4.2
2022-10-31T01:12:22.658Z,4.2
2022-10-31T01:14:22.714Z,4.1
2022-10-31T01:15:22.659Z,4.1
2022-10-31T01:16:22.652Z,4.1
2022-10-31T01:17:22.634Z,4
2022-10-31T01:18:22.645Z,4
2022-10-31T01:19:22.636Z,4
2022-10-31T01:20:22.637Z,3.9
2022-10-31T01:21:22.643Z,3.9
2022-10-31T01:22:22.643Z,3.9
2022-10-31T01:23:22.640Z,3.9
2022-10-31T01:24:22.649Z,3.8
2022-10-31T01:25:22.632Z,3.9
2022-10-31T01:26:22.646Z,4
2022-10-31T01:27:22.633Z,4
2022-10-31T01:28:22.690Z,3.9
2022-10-31T01:29:22.627Z,3.9
2022-10-31T01:30:22.639Z,3.8
2022-10-31T01:31:22.675Z,3.8
2022-10-31T01:32:22.628Z,3.9
2022-10-31T01:33:22.623Z,3.8
2022-10-31T01:34:22.661Z,3.9
2022-10-31T01:35:22.633Z,3.9
2022-10-31T01:36:22.658Z,3.9
2022-10-31T01:37:22.632Z,3.9
2022-10-31T01:38:22.639Z,4
2022-10-31T01:39:22.630Z,4
2022-10-31T01:40:22.627Z,3.9
2022-10-31T01:41:22.648Z,4
2022-10-31T01:42:22.633Z,4
2022-10-31T01:43:22.675Z,4
2022-10-31T01:44:22.639Z,4.1
2022-10-31T01:45:22.622Z,4.1
2022-10-31T01:46:22.676Z,4.1
2022-10-31T01:47:22.645Z,4
2022-10-31T01:48:22.641Z,4
2022-10-31T01:49:22.635Z,3.9
2022-10-31T01:50:22.656Z,3.9
2022-10-31T01:51:22.649Z,3.9
2022-10-31T01:52:22.627Z,3.9
2022-10-31T01:53:25.982Z,3.9
2022-10-31T01:54:22.635Z,3.9
2022-10-31T01:55:25.190Z,3.9
2022-10-31T01:56:22.673Z,3.9
2022-10-31T01:57:22.630Z,4
2022-10-31T01:58:22.634Z,4
2022-10-31T01:59:22.635Z,4
2022-10-31T02:00:22.645Z,4
2022-10-31T02:01:22.871Z,3.9
2022-10-31T02:02:22.732Z,3.9
2022-10-31T02:03:22.639Z,3.9
2022-10-31T02:04:22.645Z,3.9
2022-10-31T02:05:22.654Z,3.9
2022-10-31T02:06:22.648Z,3.9
2022-10-31T02:07:22.639Z,4
2022-10-31T02:08:22.629Z,4
2022-10-31T02:09:22.714Z,4.1
2022-10-31T02:10:22.649Z,4
2022-10-31T02:11:22.657Z,4
2022-10-31T02:12:22.633Z,4.1
2022-10-31T02:13:22.785Z,4.1
2022-10-31T02:14:22.659Z,4.1
2022-10-31T02:15:22.630Z,4
2022-10-31T02:16:22.702Z,4
2022-10-31T02:17:22.736Z,4
2022-10-31T02:18:22.638Z,4
2022-10-31T02:19:22.634Z,4
2022-10-31T02:20:22.645Z,4.1
2022-10-31T02:21:22.673Z,4
2022-10-31T02:22:22.640Z,4
2022-10-31T02:23:22.644Z,4
2022-10-31T02:24:22.641Z,4.1
2022-10-31T02:25:22.640Z,4.1
2022-10-31T02:26:22.653Z,4.2
2022-10-31T02:27:22.646Z,4.2
2022-10-31T02:28:22.633Z,4.2
2022-10-31T02:29:22.637Z,4.2
2022-10-31T02:30:22.634Z,4.2
2022-10-31T02:31:22.680Z,4.2
2022-10-31T02:32:22.633Z,4.2
2022-10-31T02:33:22.625Z,4.2
2022-10-31T02:34:22.767Z,4.2
2022-10-31T02:35:22.671Z,4.2
2022-10-31T02:36:22.718Z,4.2
2022-10-31T02:37:22.676Z,4.3
2022-10-31T02:38:22.635Z,4.2
2022-10-31T02:39:22.647Z,4.1
2022-10-31T02:40:22.634Z,4.2
2022-10-31T02:41:22.647Z,4.2
2022-10-31T02:42:22.647Z,4.2
2022-10-31T02:43:22.631Z,4.3
2022-10-31T02:44:22.640Z,4.3
2022-10-31T02:45:22.660Z,4.2
2022-10-31T02:46:22.674Z,4.2
2022-10-31T02:47:22.655Z,4.2
2022-10-31T02:48:22.655Z,4.2
2022-10-31T02:49:22.657Z,4.3
2022-10-31T02:50:22.633Z,4.2
2022-10-31T02:51:22.647Z,4.2
2022-10-31T02:52:22.636Z,4.2
2022-10-31T02:53:22.647Z,4.3
2022-10-31T02:54:22.632Z,4.3
2022-10-31T02:55:22.631Z,4.3
2022-10-31T02:56:22.655Z,4.3
2022-10-31T02:57:22.659Z,4.3
2022-10-31T02:58:22.642Z,4.3
2022-10-31T02:59:22.643Z,4.2
2022-10-31T03:00:22.643Z,4.2
2022-10-31T03:01:22.815Z,4.3
2022-10-31T03:02:22.818Z,4.2
2022-10-31T03:03:22.633Z,4.3
2022-10-31T03:04:22.633Z,4.3
2022-10-31T03:05:22.650Z,4.3
2022-10-31T03:06:22.727Z,4.3
2022-10-31T03:07:22.673Z,4.2
2022-10-31T03:08:22.659Z,4.1
2022-10-31T03:09:22.631Z,4.2
2022-10-31T03:10:22.655Z,4.2
2022-10-31T03:11:22.656Z,4.2
2022-10-31T03:12:22.642Z,4.2
2022-10-31T03:14:22.642Z,4.1
2022-10-31T03:15:22.712Z,4.2
2022-10-31T03:16:22.667Z,4.2
2022-10-31T03:17:22.651Z,4.2
2022-10-31T03:18:22.633Z,4.2
2022-10-31T03:19:22.665Z,4.1
2022-10-31T03:20:22.641Z,4.1
2022-10-31T03:21:22.666Z,4
2022-10-31T03:22:22.642Z,4.1
2022-10-31T03:23:22.647Z,4
2022-10-31T03:24:22.646Z,4
2022-10-31T03:25:22.647Z,4
2022-10-31T03:26:22.664Z,4
2022-10-31T03:27:22.645Z,3.9
2022-10-31T03:28:22.652Z,3.9
2022-10-31T03:29:22.646Z,3.8
2022-10-31T03:30:22.650Z,3.9
2022-10-31T03:31:22.699Z,3.9
2022-10-31T03:32:22.640Z,3.9
2022-10-31T03:33:22.651Z,3.9
2022-10-31T03:34:22.674Z,4
2022-10-31T03:35:22.649Z,4
2022-10-31T03:36:22.651Z,3.9
2022-10-31T03:37:22.636Z,3.9
2022-10-31T03:38:22.672Z,3.9
2022-10-31T03:39:22.632Z,4
2022-10-31T03:40:22.671Z,3.9
2022-10-31T03:41:22.666Z,3.9
2022-10-31T03:42:22.635Z,3.9
2022-10-31T03:44:22.648Z,3.9
2022-10-31T03:45:22.704Z,3.9
2022-10-31T03:46:22.670Z,3.9
2022-10-31T03:47:22.647Z,3.9
2022-10-31T03:48:22.665Z,3.9
2022-10-31T03:49:22.653Z,3.9
2022-10-31T03:50:22.634Z,3.8
2022-10-31T03:51:22.650Z,3.9
2022-10-31T03:52:22.642Z,3.9
2022-10-31T03:53:22.637Z,3.9
2022-10-31T03:54:22.647Z,3.9
2022-10-31T03:55:22.639Z,3.9
2022-10-31T03:56:22.663Z,3.9
2022-10-31T03:57:22.658Z,3.9
2022-10-31T03:58:22.647Z,3.8
2022-10-31T03:59:22.640Z,3.8
2022-10-31T04:00:22.646Z,3.8
2022-10-31T04:01:22.892Z,3.7
2022-10-31T04:02:22.799Z,3.7
2022-10-31T04:03:22.640Z,3.6
2022-10-31T04:04:22.641Z,3.6
2022-10-31T04:05:22.659Z,3.6
2022-10-31T04:06:22.655Z,3.7
2022-10-31T04:07:22.646Z,3.6
2022-10-31T04:08:22.648Z,3.7
2022-10-31T04:09:22.690Z,3.7
2022-10-31T04:10:22.650Z,3.7
2022-10-31T04:11:22.676Z,3.7
2022-10-31T04:12:22.647Z,3.8
2022-10-31T04:13:22.659Z,3.7
2022-10-31T04:14:22.638Z,3.8
2022-10-31T04:15:22.643Z,3.7
2022-10-31T04:16:22.680Z,3.7
2022-10-31T04:17:22.658Z,3.7
2022-10-31T04:18:22.645Z,3.7
2022-10-31T04:19:22.655Z,3.8
2022-10-31T04:20:22.653Z,3.8
2022-10-31T04:21:22.662Z,3.8
2022-10-31T04:22:22.721Z,3.8
2022-10-31T04:23:22.641Z,3.7
2022-10-31T04:24:22.643Z,3.8
2022-10-31T04:25:22.652Z,3.9
2022-10-31T04:26:22.666Z,3.8
2022-10-31T04:27:22.649Z,3.8
2022-10-31T04:28:22.673Z,3.8
2022-10-31T04:29:22.651Z,3.9
2022-10-31T04:30:22.660Z,3.9
2022-10-31T04:31:22.680Z,3.9
2022-10-31T04:32:22.641Z,3.9
2022-10-31T04:33:22.647Z,4
2022-10-31T04:34:22.642Z,4
2022-10-31T04:35:22.654Z,4
2022-10-31T04:36:22.652Z,4
2022-10-31T04:37:22.637Z,4
2022-10-31T04:38:22.659Z,4.1
2022-10-31T04:39:25.823Z,4.1
2022-10-31T04:40:22.673Z,4.1
2022-10-31T04:41:22.663Z,4.1
2022-10-31T04:42:22.641Z,4.1
2022-10-31T04:43:22.699Z,4.1
2022-10-31T04:44:22.662Z,4.1
2022-10-31T04:45:22.742Z,4.1
2022-10-31T04:46:22.694Z,4.1
2022-10-31T04:47:22.649Z,4.1
2022-10-31T04:48:22.657Z,4
2022-10-31T04:49:22.646Z,4.1
2022-10-31T04:50:22.657Z,4
2022-10-31T04:51:22.657Z,4
2022-10-31T04:52:22.659Z,4
2022-10-31T04:53:22.648Z,3.9
2022-10-31T04:54:22.644Z,4
2022-10-31T04:55:22.674Z,3.9
2022-10-31T04:56:22.663Z,3.9
2022-10-31T04:57:22.664Z,3.9
2022-10-31T04:58:22.655Z,3.9
2022-10-31T04:59:22.659Z,3.9
2022-10-31T05:00:22.649Z,3.9
2022-10-31T05:01:22.850Z,3.9
2022-10-31T05:02:22.708Z,3.9
2022-10-31T05:03:22.654Z,3.9
2022-10-31T05:04:22.670Z,4
2022-10-31T05:05:22.671Z,4
2022-10-31T05:06:22.668Z,4
2022-10-31T05:07:22.655Z,4
2022-10-31T05:08:22.666Z,4
2022-10-31T05:09:22.652Z,4
2022-10-31T05:10:22.658Z,4
2022-10-31T05:11:22.685Z,4.1
2022-10-31T05:12:22.664Z,4.1
2022-10-31T05:13:22.666Z,4.1
2022-10-31T05:14:22.662Z,4.1
2022-10-31T05:15:22.656Z,4
2022-10-31T05:16:22.686Z,4
2022-10-31T05:17:22.649Z,4
2022-10-31T05:18:22.645Z,4
2022-10-31T05:19:22.646Z,4
2022-10-31T05:20:22.657Z,4
2022-10-31T05:21:22.666Z,4
2022-10-31T05:22:22.648Z,4
2022-10-31T05:23:22.645Z,4
2022-10-31T05:24:22.717Z,4
2022-10-31T05:25:22.652Z,4
2022-10-31T05:26:22.670Z,3.9
2022-10-31T05:27:22.656Z,3.9
2022-10-31T05:28:22.647Z,3.9
2022-10-31T05:29:22.653Z,3.9
2022-10-31T05:30:22.652Z,4
2022-10-31T05:31:22.680Z,4
2022-10-31T05:32:22.651Z,3.9
2022-10-31T05:33:22.681Z,4
2022-10-31T05:34:22.647Z,4
2022-10-31T05:35:22.664Z,3.9
2022-10-31T05:36:22.686Z,3.9
2022-10-31T05:37:22.670Z,4
2022-10-31T05:38:22.653Z,4
2022-10-31T05:39:22.638Z,4.1
2022-10-31T05:40:22.708Z,4
2022-10-31T05:41:22.663Z,4.1
2022-10-31T05:42:22.685Z,4
2022-10-31T05:43:22.664Z,3.9
2022-10-31T05:44:22.670Z,3.9
2022-10-31T05:45:22.659Z,3.9
2022-10-31T05:46:22.736Z,3.9
2022-10-31T05:47:22.652Z,3.9
2022-10-31T05:48:22.662Z,3.9
2022-10-31T05:49:22.667Z,3.9
2022-10-31T05:50:22.673Z,3.9
2022-10-31T05:51:22.673Z,3.9
2022-10-31T05:52:22.646Z,3.9
2022-10-31T05:53:22.663Z,3.9
2022-10-31T05:54:22.679Z,3.9
2022-10-31T05:55:22.650Z,3.9
2022-10-31T05:56:22.668Z,3.9
2022-10-31T05:57:22.675Z,3.9
2022-10-31T05:58:22.643Z,3.8
2022-10-31T05:59:22.657Z,3.8
2022-10-31T06:00:22.647Z,3.8
2022-10-31T06:01:22.729Z,3.8
2022-10-31T06:02:22.660Z,3.8
2022-10-31T06:03:22.656Z,3.8
2022-10-31T06:04:22.684Z,3.8
2022-10-31T06:05:22.659Z,3.8
2022-10-31T06:06:22.683Z,3.8
2022-10-31T06:07:22.660Z,3.8
2022-10-31T06:08:22.655Z,3.8
2022-10-31T06:09:22.655Z,3.8
2022-10-31T06:10:22.669Z,3.8
2022-10-31T06:11:22.671Z,3.8
2022-10-31T06:12:22.657Z,3.8
2022-10-31T06:13:22.803Z,3.8
2022-10-31T06:14:22.804Z,3.7
2022-10-31T06:15:24.515Z,3.7
2022-10-31T06:16:22.683Z,3.7
2022-10-31T06:17:22.653Z,3.8
2022-10-31T06:18:22.664Z,3.8
2022-10-31T06:19:22.644Z,3.8
2022-10-31T06:20:22.658Z,3.8
2022-10-31T06:21:22.666Z,3.8
2022-10-31T06:22:22.669Z,3.7
2022-10-31T06:23:22.657Z,3.8
2022-10-31T06:24:22.654Z,3.8
2022-10-31T06:25:22.646Z,3.8
2022-10-31T06:26:22.666Z,3.8
2022-10-31T06:27:22.670Z,3.8
2022-10-31T06:28:22.657Z,3.8
2022-10-31T06:29:22.663Z,3.8
2022-10-31T06:30:22.660Z,3.7
2022-10-31T06:31:22.683Z,3.7
2022-10-31T06:32:22.646Z,3.7
2022-10-31T06:33:22.657Z,3.7
2022-10-31T06:34:22.665Z,3.7
2022-10-31T06:35:22.682Z,3.7
2022-10-31T06:36:22.690Z,3.7
2022-10-31T06:37:22.653Z,3.8
2022-10-31T06:38:22.670Z,3.8
2022-10-31T06:39:22.669Z,3.8
2022-10-31T06:40:22.671Z,3.9
2022-10-31T06:41:22.682Z,3.9
2022-10-31T06:42:22.655Z,3.9
2022-10-31T06:43:22.663Z,4
2022-10-31T06:44:22.686Z,4
2022-10-31T06:45:22.653Z,4
2022-10-31T06:46:22.677Z,4
2022-10-31T06:47:22.657Z,3.9
2022-10-31T06:48:22.946Z,3.9
2022-10-31T06:49:22.664Z,3.9
2022-10-31T06:50:22.663Z,3.9
2022-10-31T06:51:22.673Z,4
2022-10-31T06:52:22.674Z,4
2022-10-31T06:53:22.660Z,4
2022-10-31T06:54:22.670Z,4
2022-10-31T06:55:22.660Z,3.9
2022-10-31T06:56:22.672Z,3.9
2022-10-31T06:57:22.677Z,3.9
2022-10-31T06:58:22.656Z,3.9
2022-10-31T06:59:22.671Z,4
2022-10-31T07:00:22.670Z,4
2022-10-31T07:01:22.969Z,4
2022-10-31T07:02:22.806Z,4
2022-10-31T07:03:22.661Z,4
2022-10-31T07:04:22.671Z,4
2022-10-31T07:05:22.658Z,4
2022-10-31T07:06:22.679Z,4.1
2022-10-31T07:07:22.673Z,4.1
2022-10-31T07:08:22.668Z,4.1
2022-10-31T07:09:22.659Z,4.1
2022-10-31T07:10:22.651Z,4.2
2022-10-31T07:11:22.678Z,4.2
2022-10-31T07:12:22.681Z,4.2
2022-10-31T07:13:22.660Z,4.2
2022-10-31T07:14:23.155Z,4.2
2022-10-31T07:15:22.676Z,4.2
2022-10-31T07:16:22.689Z,4.2
2022-10-31T07:17:24.878Z,4.2
2022-10-31T07:18:22.665Z,4.1
2022-10-31T07:19:22.671Z,4.2
2022-10-31T07:20:22.667Z,4.2
2022-10-31T07:21:22.667Z,4.2
2022-10-31T07:22:22.673Z,4.1
2022-10-31T07:23:22.667Z,4.2
2022-10-31T07:24:22.688Z,4.1
2022-10-31T07:25:22.680Z,4.2
2022-10-31T07:26:22.690Z,4.2
2022-10-31T07:27:22.662Z,4.3
2022-10-31T07:28:22.650Z,4.3
2022-10-31T07:29:22.650Z,4.4
2022-10-31T07:30:22.679Z,4.5
2022-10-31T07:31:22.688Z,4.5
2022-10-31T07:32:22.661Z,4.5
2022-10-31T07:33:22.661Z,4.6
2022-10-31T07:34:22.666Z,4.6
2022-10-31T07:35:22.670Z,4.6
2022-10-31T07:36:22.680Z,4.7
2022-10-31T07:37:22.661Z,4.6
2022-10-31T07:38:22.657Z,4.6
2022-10-31T07:39:22.671Z,4.6
2022-10-31T07:40:22.664Z,4.4
2022-10-31T07:41:22.854Z,4.5
2022-10-31T07:42:22.654Z,4.5
2022-10-31T07:43:22.676Z,4.6
2022-10-31T07:44:22.668Z,4.5
2022-10-31T07:45:22.672Z,4.5
2022-10-31T07:46:22.675Z,4.5
2022-10-31T07:47:22.663Z,4.6
2022-10-31T07:48:22.661Z,4.7
2022-10-31T07:49:22.661Z,4.7
2022-10-31T07:50:22.676Z,4.8
2022-10-31T07:51:22.676Z,4.7
2022-10-31T07:52:22.664Z,4.7
2022-10-31T07:53:22.659Z,4.7
2022-10-31T07:54:22.693Z,4.7
2022-10-31T07:55:22.664Z,4.7
2022-10-31T07:56:22.655Z,4.8
2022-10-31T07:57:25.048Z,4.8
2022-10-31T07:58:22.677Z,4.7
2022-10-31T07:59:22.660Z,4.7
2022-10-31T08:00:22.989Z,4.6
2022-10-31T08:01:22.689Z,4.6
2022-10-31T08:02:22.680Z,4.7
2022-10-31T08:03:22.662Z,4.7
2022-10-31T08:04:22.664Z,4.6
2022-10-31T08:05:22.711Z,4.6
2022-10-31T08:06:22.660Z,4.5
2022-10-31T08:07:22.734Z,4.5
2022-10-31T08:08:22.662Z,4.6
2022-10-31T08:09:22.675Z,4.6
2022-10-31T08:10:22.668Z,4.6
2022-10-31T08:11:22.689Z,4.7
2022-10-31T08:12:22.665Z,4.7
2022-10-31T08:13:22.664Z,4.8
2022-10-31T08:14:29.190Z,4.9
2022-10-31T08:15:22.653Z,4.8
2022-10-31T08:16:22.694Z,4.9
2022-10-31T08:17:22.692Z,4.9
2022-10-31T08:18:22.684Z,5
2022-10-31T08:19:22.661Z,5
2022-10-31T08:20:22.661Z,5.2
2022-10-31T08:21:22.735Z,5.2
2022-10-31T08:22:22.671Z,5.2
2022-10-31T08:23:22.656Z,5.2
2022-10-31T08:24:22.659Z,5.2
2022-10-31T08:25:22.671Z,5.3
2022-10-31T08:26:22.677Z,5.2
2022-10-31T08:27:22.654Z,5
2022-10-31T08:28:22.657Z,4.9
2022-10-31T08:29:22.692Z,4.9
2022-10-31T08:30:22.668Z,5
2022-10-31T08:31:22.700Z,4.9
2022-10-31T08:32:22.682Z,4.8
2022-10-31T08:33:22.668Z,4.9
2022-10-31T08:34:22.650Z,4.9
2022-10-31T08:35:22.664Z,4.9
2022-10-31T08:36:22.686Z,4.9
2022-10-31T08:37:22.682Z,5
2022-10-31T08:38:22.673Z,5.1
2022-10-31T08:39:22.664Z,5.1
2022-10-31T08:40:22.665Z,5.1
2022-10-31T08:41:22.688Z,5.1
2022-10-31T08:42:22.674Z,5.2
2022-10-31T08:43:22.696Z,5.1
2022-10-31T08:44:22.657Z,5.1
2022-10-31T08:45:22.666Z,5.2
2022-10-31T08:46:22.693Z,5.2
2022-10-31T08:47:22.669Z,5.1
2022-10-31T08:48:22.705Z,5
2022-10-31T08:49:22.666Z,5
2022-10-31T08:50:22.724Z,5.1
2022-10-31T08:51:22.685Z,5.1
2022-10-31T08:52:33.498Z,5.2
2022-10-31T08:53:22.674Z,5.2
2022-10-31T08:54:22.668Z,5.2
2022-10-31T08:55:22.666Z,5.3
2022-10-31T08:56:22.676Z,5.3
2022-10-31T08:57:22.734Z,5.3
2022-10-31T08:58:22.686Z,5.3
2022-10-31T08:59:22.659Z,5.3
2022-10-31T09:00:22.730Z,5.3
2022-10-31T09:01:22.848Z,5.4
2022-10-31T09:02:22.780Z,5.2
2022-10-31T09:03:22.660Z,5.1
2022-10-31T09:04:22.658Z,4.9
2022-10-31T09:05:22.674Z,4.9
2022-10-31T09:06:22.781Z,4.9
2022-10-31T09:07:22.677Z,5
2022-10-31T09:08:22.675Z,5
2022-10-31T09:09:22.689Z,5.1
2022-10-31T09:10:22.716Z,5.1
2022-10-31T09:11:22.673Z,5.1
2022-10-31T09:12:22.681Z,5.1
2022-10-31T09:13:26.115Z,5.1
2022-10-31T09:14:16.688Z,5.1
2022-10-31T09:15:22.683Z,5.1
2022-10-31T09:16:22.730Z,5.2
2022-10-31T09:17:22.679Z,5.2
2022-10-31T09:18:22.679Z,5.3
2022-10-31T09:19:22.746Z,5.3
2022-10-31T09:20:22.913Z,5.5
2022-10-31T09:21:22.692Z,5.6
2022-10-31T09:22:22.675Z,5.5
2022-10-31T09:23:22.675Z,5.5
2022-10-31T09:24:22.671Z,5.5
2022-10-31T09:25:22.691Z,5.5
2022-10-31T09:26:22.709Z,5.5
2022-10-31T09:27:22.670Z,5.6
2022-10-31T09:28:22.692Z,5.6
2022-10-31T09:29:22.678Z,5.7
2022-10-31T09:30:22.791Z,5.7
2022-10-31T09:31:22.806Z,5.7
2022-10-31T09:32:22.687Z,5.8
2022-10-31T09:33:22.684Z,5.7
2022-10-31T09:34:22.690Z,5.9
2022-10-31T09:35:24.818Z,5.8
2022-10-31T09:36:22.826Z,5.7
2022-10-31T09:37:22.687Z,5.7
2022-10-31T09:38:22.676Z,5.8
2022-10-31T09:39:22.678Z,5.8
2022-10-31T09:40:22.755Z,6
2022-10-31T09:41:22.728Z,6
2022-10-31T09:42:22.685Z,6.1
2022-10-31T09:43:22.661Z,6.1
2022-10-31T09:44:22.671Z,6.2
2022-10-31T09:45:22.683Z,6.3
2022-10-31T09:46:22.754Z,6.3
2022-10-31T09:47:22.683Z,6.4
2022-10-31T09:48:22.671Z,6.3
2022-10-31T09:49:22.777Z,6.4
2022-10-31T09:50:22.861Z,6.4
2022-10-31T09:51:22.967Z,6.4
2022-10-31T09:52:22.672Z,6.4
2022-10-31T09:53:22.690Z,6.4
2022-10-31T09:54:22.685Z,6.4
2022-10-31T09:55:22.674Z,6.4
2022-10-31T09:56:22.702Z,6.4
2022-10-31T09:57:22.690Z,6.5
2022-10-31T09:58:22.679Z,6.5
2022-10-31T09:59:22.676Z,6.4
2022-10-31T10:00:22.674Z,6.5
2022-10-31T10:01:22.813Z,6.6
2022-10-31T10:02:22.761Z,6.6
2022-10-31T10:03:22.677Z,6.6
2022-10-31T10:04:22.686Z,6.6
2022-10-31T10:05:22.676Z,6.7
2022-10-31T10:06:22.700Z,6.8
2022-10-31T10:07:22.686Z,6.9
2022-10-31T10:08:22.676Z,6.9
2022-10-31T10:09:22.687Z,6.9
2022-10-31T10:10:22.678Z,7
2022-10-31T10:11:22.681Z,7
2022-10-31T10:12:22.687Z,6.9
2022-10-31T10:13:22.677Z,6.9
2022-10-31T10:14:22.941Z,6.8
2022-10-31T10:15:22.668Z,6.8
2022-10-31T10:16:22.688Z,6.8
2022-10-31T10:17:22.693Z,6.8
2022-10-31T10:18:22.689Z,6.8
2022-10-31T10:19:22.678Z,6.8
2022-10-31T10:20:22.783Z,6.8
2022-10-31T10:21:22.724Z,6.9
2022-10-31T10:22:22.672Z,6.8
2022-10-31T10:23:22.678Z,6.9
2022-10-31T10:24:36.306Z,7
2022-10-31T10:25:22.676Z,7.1
2022-10-31T10:26:22.744Z,6.9
2022-10-31T10:27:23.578Z,6.9
2022-10-31T10:28:22.687Z,6.9
2022-10-31T10:29:22.675Z,6.9
2022-10-31T10:30:22.668Z,6.9
2022-10-31T10:31:22.698Z,6.9
2022-10-31T10:32:22.688Z,6.9
2022-10-31T10:33:22.676Z,7
2022-10-31T10:34:22.686Z,7
2022-10-31T10:35:22.691Z,6.9
2022-10-31T10:36:22.696Z,7
2022-10-31T10:37:22.718Z,7.1
2022-10-31T10:38:22.684Z,6.9
2022-10-31T10:39:22.683Z,7
2022-10-31T10:40:22.686Z,7
2022-10-31T10:41:22.694Z,7
2022-10-31T10:42:22.690Z,7.1
2022-10-31T10:43:22.695Z,7.1
2022-10-31T10:44:22.701Z,7.2
2022-10-31T10:45:22.679Z,7.2
2022-10-31T10:46:22.684Z,7.1
2022-10-31T10:47:22.694Z,7.1
2022-10-31T10:48:22.695Z,7.1
2022-10-31T10:49:22.692Z,7
2022-10-31T10:50:22.680Z,7
2022-10-31T10:53:22.703Z,7.2
2022-10-31T10:54:22.701Z,7.2
2022-10-31T10:55:22.701Z,7.3
2022-10-31T10:56:22.690Z,7.3
2022-10-31T10:57:22.706Z,7.3
2022-10-31T10:58:22.691Z,7.4
2022-10-31T10:59:22.692Z,7.5
2022-10-31T11:00:22.678Z,7.6
2022-10-31T11:01:22.697Z,7.5
2022-10-31T11:02:22.696Z,7.4
2022-10-31T11:03:22.688Z,7.4
2022-10-31T11:04:22.679Z,7.5
2022-10-31T11:05:22.687Z,7.4
2022-10-31T11:06:22.705Z,7.5
2022-10-31T11:07:22.704Z,7.6
2022-10-31T11:08:27.230Z,7.7
2022-10-31T11:09:22.694Z,7.8
2022-10-31T11:10:22.683Z,7.7
2022-10-31T11:11:22.727Z,7.8
2022-10-31T11:12:22.697Z,7.6
2022-10-31T11:13:22.949Z,7.7
2022-10-31T11:14:22.691Z,7.8
2022-10-31T11:15:22.713Z,7.8
2022-10-31T11:16:22.707Z,7.8
2022-10-31T11:18:22.714Z,8.1
2022-10-31T11:19:22.693Z,7.9
2022-10-31T11:20:22.687Z,8
2022-10-31T11:21:22.788Z,8
2022-10-31T11:22:22.706Z,8
2022-10-31T11:23:22.686Z,8.1
2022-10-31T11:24:22.717Z,8
2022-10-31T11:25:22.705Z,8
2022-10-31T11:26:22.730Z,7.9
2022-10-31T11:27:22.756Z,7.9
2022-10-31T11:28:22.695Z,7.9
2022-10-31T11:29:22.693Z,7.9
2022-10-31T11:30:22.690Z,8
2022-10-31T11:31:22.707Z,8.1
2022-10-31T11:32:22.703Z,8.1
2022-10-31T11:33:22.692Z,8.1
2022-10-31T11:34:22.689Z,8.1
2022-10-31T11:35:22.795Z,8.2
2022-10-31T11:36:22.714Z,8.2
2022-10-31T11:37:22.696Z,8.2
2022-10-31T11:38:22.699Z,8.3
2022-10-31T11:39:22.702Z,8.3
2022-10-31T11:40:22.713Z,8.3
2022-10-31T11:41:22.704Z,8.2
2022-10-31T11:42:22.696Z,8.1
2022-10-31T11:43:22.690Z,8.2
2022-10-31T11:44:22.683Z,8.2
2022-10-31T11:45:22.708Z,8.2
2022-10-31T11:46:22.709Z,8.2
2022-10-31T11:47:22.703Z,8.2
2022-10-31T11:48:22.702Z,8.5
2022-10-31T11:49:22.691Z,8.5
2022-10-31T11:50:22.708Z,8.4
2022-10-31T11:51:22.706Z,8.4
2022-10-31T11:52:22.710Z,8.6
2022-10-31T11:53:22.708Z,8.7
2022-10-31T11:54:22.702Z,8.6
2022-10-31T11:55:22.727Z,8.5
2022-10-31T11:56:22.724Z,8.5
2022-10-31T11:57:22.694Z,8.4
2022-10-31T11:58:22.722Z,8.5
2022-10-31T11:59:22.706Z,8.5
2022-10-31T12:00:22.754Z,8.5
2022-10-31T12:01:22.757Z,8.5
2022-10-31T12:02:22.778Z,8.5
2022-10-31T12:03:22.701Z,8.5
2022-10-31T12:04:22.696Z,8.5
2022-10-31T12:05:22.708Z,8.5
2022-10-31T12:06:22.715Z,8.6
2022-10-31T12:07:22.704Z,8.6
2022-10-31T12:08:22.705Z,8.8
2022-10-31T12:09:22.727Z,8.6
2022-10-31T12:10:22.710Z,8.6
2022-10-31T12:11:22.717Z,8.6
2022-10-31T12:12:22.723Z,8.5
2022-10-31T12:13:22.697Z,8.7
2022-10-31T12:14:22.708Z,8.7
2022-10-31T12:15:22.707Z,8.8
2022-10-31T12:16:22.730Z,8.7
2022-10-31T12:17:22.698Z,8.6
2022-10-31T12:18:22.740Z,8.6
2022-10-31T12:19:22.695Z,8.6
2022-10-31T12:20:22.703Z,8.7
2022-10-31T12:21:22.727Z,8.7
2022-10-31T12:22:22.714Z,8.8
2022-10-31T12:23:22.701Z,8.8
2022-10-31T12:24:22.709Z,8.9
2022-10-31T12:25:22.734Z,8.9
2022-10-31T12:26:22.746Z,9.1
2022-10-31T12:27:22.703Z,9.1
2022-10-31T12:28:22.704Z,9.1
2022-10-31T12:29:22.716Z,9.1
2022-10-31T12:30:22.716Z,9.1
2022-10-31T12:31:22.712Z,9.2
2022-10-31T12:32:22.733Z,9.2
2022-10-31T12:33:22.704Z,9.2
2022-10-31T12:34:22.717Z,9.2
2022-10-31T12:35:22.712Z,9.2
2022-10-31T12:36:22.717Z,9.3
2022-10-31T12:37:22.726Z,9.3
2022-10-31T12:38:22.729Z,9.4
2022-10-31T12:39:22.715Z,9.3
2022-10-31T12:40:22.736Z,9.3
2022-10-31T12:41:22.723Z,9.3
2022-10-31T12:42:22.708Z,9.1
2022-10-31T12:43:22.714Z,9.4
2022-10-31T12:44:22.702Z,9.3
2022-10-31T12:45:22.714Z,9.5
2022-10-31T12:46:22.729Z,9.6
2022-10-31T12:47:22.717Z,9.5
2022-10-31T12:48:22.723Z,9.3
2022-10-31T12:49:22.726Z,9.3
2022-10-31T12:50:22.711Z,9.3
2022-10-31T12:51:22.735Z,9.5
2022-10-31T12:52:22.717Z,9.4
2022-10-31T12:53:22.723Z,9.4
2022-10-31T12:54:22.775Z,9.5
2022-10-31T12:55:22.728Z,9.4
2022-10-31T12:56:22.739Z,9.3
2022-10-31T12:57:22.732Z,9.5
2022-10-31T12:58:22.713Z,9.5
2022-10-31T12:59:22.724Z,9.4
2022-10-31T13:00:26.504Z,9.3
2022-10-31T13:01:22.863Z,9.4
2022-10-31T13:02:22.849Z,9.4
2022-10-31T13:03:22.731Z,9.6
2022-10-31T13:04:22.718Z,9.6
2022-10-31T13:05:22.714Z,9.5
2022-10-31T13:06:22.743Z,9.5
2022-10-31T13:07:22.723Z,9.4
2022-10-31T13:08:22.715Z,9.6
2022-10-31T13:09:22.715Z,9.4
2022-10-31T13:10:22.729Z,9.3
2022-10-31T13:11:22.735Z,9.4
2022-10-31T13:12:22.746Z,9.2
2022-10-31T13:13:22.730Z,9.1
2022-10-31T13:14:22.738Z,9.2
2022-10-31T13:15:22.729Z,9.2
2022-10-31T13:16:22.719Z,9.3
2022-10-31T13:17:22.737Z,9.2
2022-10-31T13:18:22.730Z,9.3
2022-10-31T13:19:22.719Z,9.3
2022-10-31T13:20:22.731Z,9.2
2022-10-31T13:21:22.736Z,9.3
2022-10-31T13:22:22.725Z,9.2
2022-10-31T13:23:49.358Z,9.3
2022-10-31T13:24:22.790Z,9.2
2022-10-31T13:25:22.720Z,9.1
2022-10-31T13:26:22.723Z,9.1
2022-10-31T13:27:22.752Z,9.2
2022-10-31T13:28:22.766Z,9.3
2022-10-31T13:29:24.659Z,9.2
2022-10-31T13:30:22.745Z,9.5
2022-10-31T13:31:22.743Z,9.3
2022-10-31T13:32:22.766Z,9.4
2022-10-31T13:33:22.725Z,9.4
2022-10-31T13:34:22.722Z,9.5
2022-10-31T13:35:22.727Z,9.6
2022-10-31T13:36:22.748Z,9.4
2022-10-31T13:37:22.721Z,9.3
2022-10-31T13:38:22.748Z,9.3
2022-10-31T13:39:22.794Z,9.4
2022-10-31T13:40:22.717Z,9.4
2022-10-31T13:41:22.740Z,9.7
2022-10-31T13:42:22.743Z,9.5
2022-10-31T13:43:22.722Z,9.5
2022-10-31T13:44:22.713Z,9.5
2022-10-31T13:45:22.724Z,9.5
2022-10-31T13:46:22.741Z,9.7
2022-10-31T13:47:22.729Z,9.6
2022-10-31T13:48:22.723Z,9.5
2022-10-31T13:49:22.727Z,9.5
2022-10-31T13:50:22.735Z,9.5
2022-10-31T13:51:22.733Z,9.5
2022-10-31T13:52:22.733Z,9.7
2022-10-31T13:53:22.752Z,9.6
2022-10-31T13:54:22.739Z,9.5
2022-10-31T13:55:22.820Z,9.9
2022-10-31T13:56:22.740Z,9.7
2022-10-31T13:57:22.730Z,9.7
2022-10-31T13:58:22.795Z,9.8
2022-10-31T13:59:22.785Z,9.6
2022-10-31T14:00:22.726Z,9.6
2022-10-31T14:01:22.890Z,9.4